Time;durP1;ratioP1;P1;durP2;ratioP2;P2;SDS_P1;SDS_P2;PMS_P1;PMS_P2;Temp;Humidity;BMP_temperature;BMP_pressure;BME280_temperature;BME280_humidity;BME280_pressure;Samples;Min_cycle;Max_cycle;Signal;HPM_P1;HPM_P2
2023/07/13 00:01:55;;;;;;;2.43;1.67;;;;;;;21.47;58.16;100612.69;4991531;28;20674;-72
2023/07/13 00:04:24;;;;;;;1.93;1.83;;;;;;;21.44;58.18;100611.56;4993288;28;20759;-71
2023/07/13 00:06:51;;;;;;;2.73;1.53;;;;;;;21.45;58.08;100623.03;4988560;28;20210;-72
2023/07/13 00:09:19;;;;;;;2.27;1.90;;;;;;;21.44;58.47;100614.25;4991258;28;20798;-72
2023/07/13 00:11:47;;;;;;;1.83;1.70;;;;;;;21.45;58.37;100625.72;4991336;28;20295;-72
2023/07/13 00:14:15;;;;;;;2.03;1.70;;;;;;;21.44;58.94;100633.03;4985553;28;20283;-72
2023/07/13 00:16:43;;;;;;;3.27;2.00;;;;;;;21.46;59.04;100629.94;4987554;28;20213;-72
2023/07/13 00:19:10;;;;;;;2.73;1.63;;;;;;;21.44;59.04;100626.91;4997248;28;20211;-72
2023/07/13 00:21:36;;;;;;;2.60;1.67;;;;;;;21.45;59.22;100634.56;5002560;28;20205;-72
2023/07/13 00:24:03;;;;;;;1.83;1.73;;;;;;;21.45;59.57;100633.78;4972032;28;20248;-72
2023/07/13 00:26:32;;;;;;;3.40;1.90;;;;;;;21.45;59.07;100628.41;4997191;28;20569;-72
2023/07/13 00:28:58;;;;;;;1.90;1.80;;;;;;;21.44;58.81;100629.59;4984155;28;20620;-72
2023/07/13 00:31:25;;;;;;;2.23;1.90;;;;;;;21.45;58.36;100629.19;4976948;28;20650;-72
2023/07/13 00:33:59;;;;;;;2.77;1.80;;;;;;;21.45;58.70;100628.41;5000984;28;20227;-72
2023/07/13 00:36:26;;;;;;;2.60;1.77;;;;;;;21.44;58.11;100624.22;4971852;28;20251;-72
2023/07/13 00:38:53;;;;;;;2.60;1.80;;;;;;;21.43;58.64;100625.38;4989524;28;20197;-72
2023/07/13 00:41:20;;;;;;;2.60;2.00;;;;;;;21.41;58.65;100639.19;4988861;28;20259;-72
2023/07/13 00:43:46;;;;;;;3.77;1.70;;;;;;;21.42;57.54;100639.97;4972774;28;20293;-72
2023/07/13 00:46:19;;;;;;;3.40;2.10;;;;;;;21.42;57.13;100632.66;4990141;28;20205;-72
2023/07/13 00:48:47;;;;;;;2.07;1.70;;;;;;;21.40;56.30;100629.63;4977658;28;20200;-72
2023/07/13 00:51:18;;;;;;;5.00;2.27;;;;;;;21.38;54.27;100623.84;4983681;28;20268;-72
2023/07/13 00:53:45;;;;;;;3.90;2.00;;;;;;;21.36;53.21;100602.00;4989578;28;20205;-72
2023/07/13 00:56:11;;;;;;;2.40;1.93;;;;;;;21.34;53.67;100590.13;4963629;28;20205;-72
2023/07/13 00:58:38;;;;;;;3.40;2.10;;;;;;;21.30;53.07;100590.16;4985447;28;20256;-71
2023/07/13 01:01:05;;;;;;;2.63;1.80;;;;;;;21.27;54.58;100588.25;4975676;28;20300;-71
2023/07/13 01:03:35;;;;;;;2.93;1.83;;;;;;;21.25;56.73;100597.88;4986710;28;20210;-71
2023/07/13 01:06:01;;;;;;;4.60;2.00;;;;;;;21.18;55.13;100606.78;4963796;28;20210;-71
2023/07/13 01:08:29;;;;;;;2.90;2.00;;;;;;;21.14;54.65;100605.25;4990314;28;20284;-71
2023/07/13 01:10:57;;;;;;;2.23;1.90;;;;;;;21.10;55.46;100609.88;4981566;28;20241;-72
2023/07/13 01:13:24;;;;;;;2.37;2.10;;;;;;;21.05;56.02;100597.66;4993222;28;20280;-72
2023/07/13 01:15:52;;;;;;;2.80;2.10;;;;;;;21.01;56.53;100604.22;4995893;28;20231;-72
2023/07/13 01:18:22;;;;;;;2.17;1.90;;;;;;;20.96;56.44;100604.63;4992945;28;20284;-72
2023/07/13 01:20:54;;;;;;;2.70;1.93;;;;;;;20.92;57.21;100618.09;4984633;28;20212;-72
2023/07/13 01:23:21;;;;;;;2.97;2.10;;;;;;;20.88;58.22;100620.00;4987153;28;20205;-72
2023/07/13 01:25:49;;;;;;;3.23;2.33;;;;;;;20.87;58.34;100621.16;4974138;28;20219;-72
2023/07/13 01:28:16;;;;;;;4.27;2.30;;;;;;;20.84;57.91;100621.94;4988718;28;20205;-72
2023/07/13 01:30:45;;;;;;;4.17;1.83;;;;;;;20.83;57.82;100617.72;4994243;28;20205;-72
2023/07/13 01:33:13;;;;;;;2.60;2.13;;;;;;;20.81;57.96;100624.66;4998848;28;20691;-71
2023/07/13 01:35:40;;;;;;;2.53;2.10;;;;;;;20.79;58.74;100632.31;4972981;28;20585;-71
2023/07/13 01:38:08;;;;;;;2.47;2.10;;;;;;;20.79;58.84;100627.72;4989494;28;20676;-71
2023/07/13 01:40:35;;;;;;;3.70;2.10;;;;;;;20.77;59.28;100634.63;4988108;28;20208;-71
2023/07/13 01:43:02;;;;;;;2.20;2.00;;;;;;;20.75;59.06;100634.25;4996368;28;20251;-72
2023/07/13 01:45:29;;;;;;;3.47;2.10;;;;;;;20.73;58.55;100623.91;4973528;28;20592;-72
2023/07/13 01:47:55;;;;;;;4.53;2.10;;;;;;;20.72;58.46;100627.00;4994489;28;20669;-72
2023/07/13 01:50:22;;;;;;;5.30;2.30;;;;;;;20.69;57.74;100630.47;4989296;28;20217;-72
2023/07/13 01:52:48;;;;;;;2.53;1.90;;;;;;;20.66;58.09;100633.91;4972549;28;20719;-72
2023/07/13 01:55:16;;;;;;;2.80;1.90;;;;;;;20.66;59.24;100637.38;4978587;28;20226;-72
2023/07/13 01:57:43;;;;;;;3.50;2.10;;;;;;;20.66;59.39;100636.59;4983683;28;20197;-72
2023/07/13 02:00:12;;;;;;;4.17;2.17;;;;;;;20.66;59.64;100639.28;4981149;28;20214;-72
2023/07/13 02:02:47;;;;;;;2.90;2.60;;;;;;;20.63;59.03;100624.72;4972640;28;20209;-72
2023/07/13 02:05:14;;;;;;;2.40;2.17;;;;;;;20.62;58.94;100630.50;5004936;28;20245;-72
2023/07/13 02:07:41;;;;;;;4.27;2.30;;;;;;;20.60;60.29;100630.88;4998381;28;20267;-72
2023/07/13 02:10:09;;;;;;;3.67;2.30;;;;;;;20.60;59.84;100630.13;5002310;28;20288;-72
2023/07/13 02:12:38;;;;;;;2.87;2.20;;;;;;;20.58;58.62;100633.19;4988887;28;20230;-72
2023/07/13 02:15:06;;;;;;;2.43;2.20;;;;;;;20.57;58.70;100630.91;4962256;28;20587;-72
2023/07/13 02:17:32;;;;;;;3.33;2.20;;;;;;;20.55;59.43;100635.91;4974990;28;20216;-72
2023/07/13 02:19:59;;;;;;;2.43;2.23;;;;;;;20.55;59.88;100644.69;4999196;28;20284;-72
2023/07/13 02:22:25;;;;;;;2.37;1.87;;;;;;;20.55;59.36;100633.97;4979746;28;20205;-72
2023/07/13 02:24:52;;;;;;;2.33;2.13;;;;;;;20.55;58.94;100628.59;4991799;28;20615;-72
2023/07/13 02:27:18;;;;;;;4.63;2.40;;;;;;;20.53;57.62;100638.19;4999613;28;20276;-72
2023/07/13 02:29:46;;;;;;;2.60;2.20;;;;;;;20.52;58.04;100636.66;4978043;28;20205;-72
2023/07/13 02:32:13;;;;;;;2.47;2.27;;;;;;;20.49;58.74;100635.53;4996860;28;20755;-72
2023/07/13 02:34:41;;;;;;;3.27;2.10;;;;;;;20.50;59.29;100629.00;4997054;28;20540;-72
2023/07/13 02:37:08;;;;;;;2.20;2.00;;;;;;;20.47;59.66;100627.13;4976753;28;20207;-72
2023/07/13 02:39:35;;;;;;;2.60;2.30;;;;;;;20.46;60.03;100617.53;4977678;28;20306;-72
2023/07/13 02:42:04;;;;;;;3.87;2.43;;;;;;;20.41;59.01;100633.28;4994357;28;20196;-72
2023/07/13 02:44:30;;;;;;;3.87;2.30;;;;;;;20.38;59.66;100636.75;4987038;28;20742;-72
2023/07/13 02:46:58;;;;;;;3.37;2.00;;;;;;;20.33;58.45;100637.16;4974059;28;20607;-72
2023/07/13 02:49:24;;;;;;;2.87;2.43;;;;;;;20.32;58.83;100640.97;4985871;28;20657;-71
2023/07/13 02:51:51;;;;;;;3.73;2.30;;;;;;;20.30;59.58;100632.56;4991993;28;20217;-71
2023/07/13 02:54:18;;;;;;;2.40;2.20;;;;;;;20.27;59.71;100639.44;4991534;28;20255;-71
2023/07/13 02:56:44;;;;;;;4.10;2.50;;;;;;;20.23;60.41;100640.63;4995007;28;20228;-71
2023/07/13 02:59:12;;;;;;;2.93;2.50;;;;;;;20.21;60.73;100638.31;4980225;28;20724;-71
2023/07/13 03:01:38;;;;;;;4.57;2.63;;;;;;;20.14;59.85;100651.00;4989374;28;20205;-71
2023/07/13 03:04:06;;;;;;;2.60;2.07;;;;;;;20.04;59.54;100649.84;4998780;28;20227;-71
2023/07/13 03:06:35;;;;;;;2.33;2.13;;;;;;;19.99;60.58;100655.59;4976391;28;20201;-71
2023/07/13 03:09:03;;;;;;;5.43;2.70;;;;;;;19.97;60.16;100654.47;5009555;28;20193;-71
2023/07/13 03:11:31;;;;;;;2.77;2.37;;;;;;;19.95;60.66;100646.78;4978840;28;20209;-71
2023/07/13 03:14:13;;;;;;;2.43;2.10;;;;;;;19.93;61.20;100651.00;4991385;28;20708;-71
2023/07/13 03:16:40;;;;;;;2.57;2.10;;;;;;;19.90;60.24;100657.13;4994948;28;20243;-71
2023/07/13 03:19:08;;;;;;;3.17;2.40;;;;;;;19.88;60.73;100662.88;4975314;28;20236;-71
2023/07/13 03:21:35;;;;;;;2.80;2.57;;;;;;;19.88;60.64;100670.91;4974988;28;20292;-71
2023/07/13 03:24:02;;;;;;;4.40;2.43;;;;;;;19.88;60.77;100673.59;4967046;28;20228;-72
2023/07/13 03:26:28;;;;;;;4.07;2.30;;;;;;;19.88;61.20;100667.47;4981257;28;20213;-72
2023/07/13 03:28:56;;;;;;;3.97;2.40;;;;;;;19.84;58.16;100670.19;4974841;28;20300;-72
2023/07/13 03:31:28;;;;;;;3.87;2.30;;;;;;;19.84;58.59;100662.13;4975018;28;20213;-72
2023/07/13 03:33:54;;;;;;;2.40;2.20;;;;;;;19.85;59.97;100673.59;4989660;28;20772;-72
2023/07/13 03:36:25;;;;;;;3.67;2.70;;;;;;;19.84;59.28;100678.22;4989231;28;20364;-72
2023/07/13 03:38:57;;;;;;;5.60;2.80;;;;;;;19.83;60.06;100679.38;4977825;28;20209;-72
2023/07/13 03:41:27;;;;;;;2.50;2.30;;;;;;;19.82;59.67;100685.84;4974428;28;20229;-72
2023/07/13 03:43:55;;;;;;;2.50;2.20;;;;;;;19.82;58.17;100693.16;4999220;28;20220;-72
2023/07/13 03:46:24;;;;;;;2.93;2.50;;;;;;;19.83;59.88;100692.78;4975045;28;20494;-72
2023/07/13 03:48:50;;;;;;;4.47;2.63;;;;;;;19.86;59.92;100699.28;4974107;28;20241;-72
2023/07/13 03:51:17;;;;;;;3.43;2.60;;;;;;;19.89;60.41;100687.78;4978890;28;20564;-72
2023/07/13 03:53:47;;;;;;;3.23;2.60;;;;;;;19.89;59.15;100690.44;4986789;28;20218;-72
2023/07/13 03:56:16;;;;;;;3.83;2.50;;;;;;;19.92;60.03;100685.09;4994388;28;20263;-72
2023/07/13 03:58:46;;;;;;;2.50;2.30;;;;;;;19.96;59.77;100687.75;4993145;28;20201;-72
2023/07/13 04:01:21;;;;;;;3.17;2.50;;;;;;;19.96;60.13;100693.13;4979909;28;20660;-72
2023/07/13 04:03:47;;;;;;;2.83;2.50;;;;;;;19.96;60.71;100688.53;4972455;28;20197;-72
2023/07/13 04:06:20;;;;;;;4.53;2.80;;;;;;;19.99;60.40;100693.13;4987743;28;20255;-72
2023/07/13 04:08:50;;;;;;;2.70;2.50;;;;;;;19.96;60.28;100709.19;4980583;28;20200;-72
2023/07/13 04:11:17;;;;;;;3.43;2.80;;;;;;;19.99;60.91;100719.16;4987707;28;20220;-72
2023/07/13 04:13:44;;;;;;;5.87;2.60;;;;;;;20.01;59.78;100709.59;4989460;28;20224;-72
2023/07/13 04:16:11;;;;;;;3.03;2.60;;;;;;;20.03;60.49;100709.94;4991441;28;20699;-72
2023/07/13 04:18:38;;;;;;;3.03;2.57;;;;;;;20.06;60.32;100711.88;4983701;28;20206;-72
2023/07/13 04:21:04;;;;;;;2.50;2.30;;;;;;;20.07;60.29;100715.38;4992096;28;20205;-72
2023/07/13 04:23:30;;;;;;;9.90;2.73;;;;;;;20.12;60.87;100710.34;4991637;28;20209;-72
2023/07/13 04:25:58;;;;;;;3.23;2.30;;;;;;;20.12;60.56;100721.09;4988810;28;20686;-72
2023/07/13 04:28:27;;;;;;;2.80;2.60;;;;;;;20.14;61.83;100718.03;4986239;28;20204;-72
2023/07/13 04:30:53;;;;;;;2.97;2.60;;;;;;;20.17;61.75;100723.38;4990724;28;20201;-72
2023/07/13 04:33:22;;;;;;;5.10;2.60;;;;;;;20.17;59.61;100720.69;4999958;28;20232;-72
2023/07/13 04:35:49;;;;;;;3.53;2.63;;;;;;;20.21;59.21;100726.81;5002479;28;20711;-72
2023/07/13 04:38:15;;;;;;;2.43;2.10;;;;;;;20.23;60.25;100729.13;4991249;28;20632;-72
2023/07/13 04:40:43;;;;;;;6.93;2.73;;;;;;;20.26;59.76;100729.13;4994045;28;20208;-72
2023/07/13 04:43:11;;;;;;;3.97;2.70;;;;;;;20.29;58.63;100738.31;4990001;28;20225;-72
2023/07/13 04:45:37;;;;;;;2.47;2.27;;;;;;;20.30;58.76;100724.50;4990089;28;20593;-72
2023/07/13 04:48:04;;;;;;;3.03;2.30;;;;;;;20.36;58.59;100735.59;4994606;28;20208;-72
2023/07/13 04:50:30;;;;;;;2.93;2.40;;;;;;;20.39;58.12;100732.16;4995459;28;20211;-72
2023/07/13 04:52:58;;;;;;;2.53;2.30;;;;;;;20.43;57.51;100738.28;4990871;28;20228;-72
2023/07/13 04:55:24;;;;;;;2.97;2.60;;;;;;;20.49;58.73;100737.47;4989873;28;20233;-72
2023/07/13 04:57:50;;;;;;;2.43;2.23;;;;;;;20.54;57.87;100744.38;4996830;28;20205;-72
2023/07/13 05:00:19;;;;;;;3.93;2.50;;;;;;;20.57;58.27;100748.94;4973112;28;20202;-72
2023/07/13 05:02:46;;;;;;;4.03;2.50;;;;;;;20.61;57.85;100738.97;4987678;28;20663;-72
2023/07/13 05:05:12;;;;;;;3.23;2.47;;;;;;;20.66;58.95;100758.16;4984199;28;20217;-70
2023/07/13 05:07:39;;;;;;;3.97;2.60;;;;;;;20.66;58.19;100747.41;4983550;28;20214;-71
2023/07/13 05:10:06;;;;;;;2.70;2.50;;;;;;;20.69;58.36;100770.03;4997269;28;20216;-71
2023/07/13 05:12:33;;;;;;;4.27;2.57;;;;;;;20.69;59.63;100764.66;4985638;28;20205;-71
2023/07/13 05:15:00;;;;;;;2.97;2.70;;;;;;;20.67;58.70;100772.31;4991278;28;20263;-71
2023/07/13 05:17:27;;;;;;;6.03;2.50;;;;;;;20.70;58.14;100769.59;4992244;28;20693;-71
2023/07/13 05:19:54;;;;;;;2.97;2.67;;;;;;;20.72;57.63;100769.22;4991310;28;20209;-71
2023/07/13 05:22:20;;;;;;;4.60;2.67;;;;;;;20.75;58.01;100758.47;4994354;28;20703;-71
2023/07/13 05:24:46;;;;;;;5.67;2.67;;;;;;;20.78;57.56;100762.31;4995022;28;20637;-71
2023/07/13 05:27:13;;;;;;;2.67;2.47;;;;;;;20.72;56.01;100761.94;4991351;28;20640;-71
2023/07/13 05:29:39;;;;;;;2.70;2.30;;;;;;;20.78;57.37;100762.31;4985547;28;20593;-71
2023/07/13 05:32:06;;;;;;;2.87;2.50;;;;;;;20.78;55.60;100762.31;4989794;28;20668;-72
2023/07/13 05:34:34;;;;;;;5.87;2.93;;;;;;;20.78;56.30;100764.97;4987136;28;20595;-72
2023/07/13 05:37:00;;;;;;;2.93;2.60;;;;;;;20.82;56.72;100763.06;4994648;28;20680;-72
2023/07/13 05:39:27;;;;;;;5.13;2.50;;;;;;;20.86;57.89;100769.19;4982734;28;20567;-72
2023/07/13 05:41:53;;;;;;;4.97;2.50;;;;;;;20.90;57.74;100775.34;4994486;28;20200;-72
2023/07/13 05:44:20;;;;;;;4.93;2.73;;;;;;;20.96;57.97;100787.19;4990022;28;20224;-72
2023/07/13 05:46:46;;;;;;;4.20;2.40;;;;;;;21.00;57.42;100783.34;4978578;28;20202;-72
2023/07/13 05:49:13;;;;;;;2.93;2.63;;;;;;;21.07;56.58;100779.84;4983916;28;20209;-72
2023/07/13 05:51:40;;;;;;;5.63;2.57;;;;;;;21.12;56.29;100774.84;4991507;28;20696;-72
2023/07/13 05:54:07;;;;;;;3.10;2.53;;;;;;;21.16;56.08;100780.97;4986573;28;20229;-72
2023/07/13 05:56:33;;;;;;;3.00;2.60;;;;;;;21.21;56.28;100777.88;4984078;28;20591;-72
2023/07/13 05:58:59;;;;;;;3.00;2.67;;;;;;;21.23;56.29;100778.25;4980179;28;20209;-72
2023/07/13 06:01:26;;;;;;;3.00;2.70;;;;;;;21.27;57.44;100783.59;4990876;28;20209;-72
2023/07/13 06:03:52;;;;;;;4.40;2.73;;;;;;;21.30;58.57;100788.94;4991877;28;20225;-72
2023/07/13 06:06:19;;;;;;;3.37;2.47;;;;;;;21.34;57.61;100788.94;4988976;28;20673;-72
2023/07/13 06:08:46;;;;;;;3.73;2.53;;;;;;;21.38;57.35;100795.81;4996171;28;20215;-72
2023/07/13 06:11:17;;;;;;;4.53;2.70;;;;;;;21.41;56.51;100786.97;4996212;28;20212;-72
2023/07/13 06:13:44;;;;;;;3.07;2.70;;;;;;;21.42;56.57;100787.75;4994169;28;20213;-72
2023/07/13 06:16:11;;;;;;;2.77;2.50;;;;;;;21.44;56.18;100790.78;5001541;28;20196;-72
2023/07/13 06:18:38;;;;;;;5.10;2.60;;;;;;;21.48;56.89;100778.84;4989310;28;20220;-72
2023/07/13 06:21:09;;;;;;;3.07;2.50;;;;;;;21.54;56.45;100787.28;4994903;28;20215;-72
2023/07/13 06:23:36;;;;;;;10.23;2.97;;;;;;;21.58;55.08;100775.34;4993161;28;20210;-72
2023/07/13 06:26:04;;;;;;;3.00;2.70;;;;;;;21.65;53.92;100774.53;4997881;28;20687;-72
2023/07/13 06:28:31;;;;;;;2.93;2.60;;;;;;;21.72;54.83;100783.34;4990978;28;20190;-72
2023/07/13 06:30:58;;;;;;;2.57;2.37;;;;;;;21.75;54.79;100779.09;4982635;28;20198;-72
2023/07/13 06:33:24;;;;;;;5.40;2.60;;;;;;;21.81;55.56;100774.81;4980217;28;20213;-72
2023/07/13 06:35:50;;;;;;;3.43;2.47;;;;;;;21.87;55.12;100774.00;5003817;28;20727;-72
2023/07/13 06:38:17;;;;;;;3.70;2.40;;;;;;;21.94;54.71;100779.31;4995094;28;20212;-72
2023/07/13 06:40:43;;;;;;;2.93;2.20;;;;;;;22.01;54.70;100779.28;4997739;28;20205;-72
2023/07/13 06:43:11;;;;;;;4.87;2.73;;;;;;;22.07;52.70;100776.91;4988902;28;20216;-72
2023/07/13 06:45:41;;;;;;;2.97;2.27;;;;;;;22.15;52.98;100781.81;4992745;28;20572;-72
2023/07/13 06:48:08;;;;;;;3.90;2.57;;;;;;;22.23;52.50;100774.47;4992951;28;20211;-72
2023/07/13 06:50:35;;;;;;;3.53;2.43;;;;;;;22.31;53.27;100776.69;4998447;28;20262;-72
2023/07/13 06:53:01;;;;;;;2.40;2.20;;;;;;;22.41;52.11;100778.50;4992532;28;20201;-72
2023/07/13 06:55:28;;;;;;;4.43;2.17;;;;;;;22.49;52.50;100771.16;4983764;28;20218;-72
2023/07/13 06:57:54;;;;;;;3.60;2.23;;;;;;;22.58;50.89;100774.91;4987716;28;20465;-72
2023/07/13 07:00:22;;;;;;;3.53;2.00;;;;;;;22.67;51.19;100769.78;4986339;28;20213;-72
2023/07/13 07:02:48;;;;;;;3.40;2.40;;;;;;;22.79;52.33;100773.91;4987604;28;20205;-72
2023/07/13 07:05:15;;;;;;;2.40;2.10;;;;;;;22.88;50.36;100771.50;4994994;28;20225;-72
2023/07/13 07:07:41;;;;;;;3.20;2.10;;;;;;;22.99;50.72;100774.81;4988694;28;20213;-72
2023/07/13 07:10:08;;;;;;;3.60;2.37;;;;;;;23.07;50.56;100779.69;4986855;28;20696;-72
2023/07/13 07:12:35;;;;;;;2.30;1.90;;;;;;;23.17;49.55;100776.13;4993767;28;20723;-72
2023/07/13 07:15:01;;;;;;;2.03;1.60;;;;;;;23.27;49.46;100775.22;4997956;28;20224;-71
2023/07/13 07:17:29;;;;;;;3.43;1.80;;;;;;;23.37;49.15;100776.25;5007830;28;20201;-71
2023/07/13 07:19:55;;;;;;;2.83;1.97;;;;;;;23.48;49.12;100783.00;5006432;28;20193;-72
2023/07/13 07:22:22;;;;;;;1.80;1.60;;;;;;;23.60;48.08;100784.41;5008647;28;20384;-72
2023/07/13 07:24:48;;;;;;;3.17;1.47;;;;;;;23.72;48.04;100785.75;5012816;28;20308;-72
2023/07/13 07:27:15;;;;;;;2.80;1.77;;;;;;;23.81;45.53;100792.16;4997381;28;20205;-72
2023/07/13 07:29:41;;;;;;;3.83;1.70;;;;;;;23.93;47.48;100788.91;5012963;28;20215;-72
2023/07/13 07:32:08;;;;;;;2.78;1.50;;;;;;;24.02;45.66;100786.44;5016000;28;20212;-72
2023/07/13 07:34:36;;;;;;;3.10;1.70;;;;;;;24.13;44.44;100791.66;4996787;28;20235;-72
2023/07/13 07:37:03;;;;;;;2.50;1.77;;;;;;;24.24;45.54;100793.00;4991110;28;20356;-72
2023/07/13 07:39:30;;;;;;;2.83;1.60;;;;;;;24.34;43.93;100794.00;4973694;28;20216;-72
2023/07/13 07:41:56;;;;;;;4.27;1.80;;;;;;;24.40;41.88;100793.09;4984615;28;20201;-72
2023/07/13 07:44:23;;;;;;;2.17;1.65;;;;;;;24.49;42.34;100798.72;4992764;28;20220;-72
2023/07/13 07:46:50;;;;;;;3.78;1.85;;;;;;;24.58;45.39;100801.69;4991884;28;20545;-72
2023/07/13 07:49:16;;;;;;;3.80;1.77;;;;;;;24.64;42.74;100800.03;4985270;28;20217;-72
2023/07/13 07:51:43;;;;;;;2.88;1.60;;;;;;;24.74;42.83;100804.47;4992506;28;20208;-72
2023/07/13 07:54:10;;;;;;;2.35;1.38;;;;;;;24.89;41.22;100807.63;4984393;28;20222;-72
2023/07/13 07:56:36;;;;;;;3.75;1.65;;;;;;;25.07;42.91;100805.34;4990428;28;20206;-72
2023/07/13 07:59:03;;;;;;;2.70;1.58;;;;;;;25.20;43.44;100803.50;4993519;28;20208;-72
2023/07/13 08:01:29;;;;;;;2.83;1.60;;;;;;;25.34;43.59;100808.66;4992915;28;20289;-72
2023/07/13 08:03:55;;;;;;;2.00;1.45;;;;;;;25.41;41.28;100811.97;4990577;28;20228;-72
2023/07/13 08:06:22;;;;;;;3.72;1.70;;;;;;;25.47;41.51;100815.69;4994408;28;20201;-72
2023/07/13 08:08:50;;;;;;;2.08;1.33;;;;;;;25.54;41.90;100823.63;4992887;28;20264;-72
2023/07/13 08:11:17;;;;;;;4.65;1.70;;;;;;;25.68;42.81;100817.91;4991220;28;20202;-72
2023/07/13 08:13:43;;;;;;;6.60;1.63;;;;;;;25.85;41.44;100816.72;4985432;28;20317;-72
2023/07/13 08:16:11;;;;;;;3.63;1.73;;;;;;;25.99;41.94;100811.03;4991201;28;20198;-72
2023/07/13 08:18:38;;;;;;;2.38;1.38;;;;;;;26.12;40.23;100816.50;4990068;28;20209;-72
2023/07/13 08:21:05;;;;;;;3.33;1.90;;;;;;;26.22;39.93;100826.31;4991244;28;20209;-72
2023/07/13 08:23:32;;;;;;;4.63;1.52;;;;;;;26.22;38.84;100821.66;4991668;28;20738;-72
2023/07/13 08:26:01;;;;;;;3.75;1.70;;;;;;;26.32;39.88;100825.28;4989375;28;20284;-72
2023/07/13 08:28:28;;;;;;;2.97;1.42;;;;;;;26.42;38.86;100827.72;4988427;28;20198;-72
2023/07/13 08:30:55;;;;;;;3.25;1.30;;;;;;;26.42;39.77;100821.53;4991958;28;20208;-72
2023/07/13 08:33:23;;;;;;;3.15;1.70;;;;;;;26.43;39.37;100829.25;4985770;28;20205;-72
2023/07/13 08:35:51;;;;;;;2.17;1.35;;;;;;;26.43;37.33;100828.47;4989510;28;20248;-72
2023/07/13 08:38:18;;;;;;;4.25;1.52;;;;;;;26.39;37.54;100819.69;4990857;28;20241;-72
2023/07/13 08:40:49;;;;;;;2.03;1.60;;;;;;;26.37;39.07;100822.06;4990469;28;20683;-72
2023/07/13 08:43:21;;;;;;;2.05;1.40;;;;;;;26.38;38.40;100826.28;4988523;28;20201;-72
2023/07/13 08:45:54;;;;;;;2.00;1.50;;;;;;;26.37;36.98;100825.50;4990565;28;20225;-72
2023/07/13 08:48:26;;;;;;;2.53;1.27;;;;;;;26.40;36.57;100823.91;4971730;28;20214;-72
2023/07/13 08:50:58;;;;;;;3.35;1.40;;;;;;;26.44;39.06;100821.88;4983406;28;20201;-72
2023/07/13 08:53:33;;;;;;;1.73;1.60;;;;;;;26.49;38.65;100827.53;4990930;28;20217;-72
2023/07/13 08:56:00;;;;;;;2.92;1.58;;;;;;;26.47;38.22;100824.47;4987770;28;20196;-72
2023/07/13 08:58:29;;;;;;;3.08;1.63;;;;;;;26.55;37.28;100820.44;4988006;28;20209;-72
2023/07/13 09:01:03;;;;;;;3.67;1.80;;;;;;;26.59;37.92;100828.47;4984639;28;20560;-72
2023/07/13 09:03:36;;;;;;;2.55;1.65;;;;;;;26.66;37.69;100820.13;4988144;28;20292;-72
2023/07/13 09:06:04;;;;;;;2.70;1.80;;;;;;;26.75;37.77;100821.06;4991099;28;20221;-72
2023/07/13 09:08:46;;;;;;;5.53;1.90;;;;;;;26.81;37.28;100822.03;4983168;28;20300;-72
2023/07/13 09:11:27;;;;;;;2.17;1.75;;;;;;;26.89;37.88;100826.06;4985865;28;20211;-72
2023/07/13 09:14:03;;;;;;;3.13;1.60;;;;;;;26.95;36.90;100815.47;4995279;28;20308;-72
2023/07/13 09:16:30;;;;;;;2.28;1.80;;;;;;;26.98;37.26;100823.50;4990079;28;20203;-72
2023/07/13 09:19:02;;;;;;;2.55;1.52;;;;;;;26.97;37.68;100821.97;4990118;28;20201;-72
2023/07/13 09:21:33;;;;;;;2.28;1.80;;;;;;;26.95;38.76;100818.94;4985301;28;20197;-72
2023/07/13 09:24:01;;;;;;;5.45;1.95;;;;;;;26.91;38.33;100829.13;4977772;28;20216;-72
2023/07/13 09:26:30;;;;;;;3.67;1.67;;;;;;;26.78;38.00;100825.59;4992695;28;20205;-72
2023/07/13 09:29:05;;;;;;;3.47;2.10;;;;;;;26.78;38.64;100831.03;4993015;28;20259;-72
2023/07/13 09:31:35;;;;;;;2.47;1.70;;;;;;;26.71;39.06;100825.81;4990347;28;20211;-72
2023/07/13 09:34:02;;;;;;;2.63;1.75;;;;;;;26.67;37.46;100833.25;4992795;28;20703;-72
2023/07/13 09:36:30;;;;;;;4.07;1.80;;;;;;;26.63;38.48;100832.59;4972988;28;20292;-72
2023/07/13 09:39:03;;;;;;;3.38;1.67;;;;;;;26.49;38.20;100838.38;4989458;28;20205;-72
2023/07/13 09:41:37;;;;;;;2.35;1.80;;;;;;;26.47;37.92;100843.44;4995688;28;20228;-72
2023/07/13 09:44:14;;;;;;;2.55;1.60;;;;;;;26.40;37.62;100845.56;4992405;28;20587;-72
2023/07/13 09:46:45;;;;;;;2.83;1.67;;;;;;;26.38;37.38;100843.31;4994110;28;20212;-72
2023/07/13 09:49:12;;;;;;;4.88;1.92;;;;;;;26.33;39.71;100835.69;4978026;28;20202;-72
2023/07/13 09:51:39;;;;;;;3.28;1.85;;;;;;;26.45;39.29;100834.22;4987781;28;20197;-72
2023/07/13 09:54:05;;;;;;;2.95;1.48;;;;;;;26.55;37.83;100835.88;4992262;28;20273;-72
2023/07/13 09:56:33;;;;;;;4.82;1.90;;;;;;;26.65;37.68;100824.03;4985222;28;20574;-72
2023/07/13 09:58:59;;;;;;;2.70;1.60;;;;;;;26.78;36.51;100822.91;4989133;28;20209;-72
2023/07/13 10:01:36;;;;;;;6.57;1.73;;;;;;;26.94;38.54;100822.09;4985798;28;20194;-72
2023/07/13 10:04:12;;;;;;;1.52;1.40;;;;;;;27.14;38.80;100818.00;4989623;28;20226;-72
2023/07/13 10:06:40;;;;;;;5.95;1.80;;;;;;;27.37;38.83;100831.31;4989311;28;20232;-72
2023/07/13 10:09:08;;;;;;;4.68;1.88;;;;;;;27.57;37.92;100823.72;4989413;28;20219;-72
2023/07/13 10:11:37;;;;;;;2.80;1.63;;;;;;;27.70;35.96;100831.84;4972580;28;20205;-72
2023/07/13 10:14:13;;;;;;;4.85;1.58;;;;;;;27.76;35.48;100825.41;4991318;28;20653;-72
2023/07/13 10:16:43;;;;;;;2.03;1.50;;;;;;;27.79;34.64;100838.16;4992041;28;20232;-72
2023/07/13 10:19:14;;;;;;;1.92;1.45;;;;;;;27.76;35.06;100832.81;4990365;28;20722;-72
2023/07/13 10:21:48;;;;;;;4.20;1.55;;;;;;;27.66;35.41;100845.50;4989726;28;20696;-72
2023/07/13 10:24:18;;;;;;;2.70;1.50;;;;;;;27.64;35.56;100839.00;4988126;28;20663;-72
2023/07/13 10:26:49;;;;;;;5.82;1.90;;;;;;;27.61;35.63;100839.88;4989158;28;20213;-72
2023/07/13 10:29:17;;;;;;;2.45;1.58;;;;;;;27.65;36.37;100849.41;4990060;28;20201;-72
2023/07/13 10:31:46;;;;;;;3.38;1.40;;;;;;;27.64;35.90;100842.47;4975312;28;20214;-72
2023/07/13 10:34:14;;;;;;;1.98;1.50;;;;;;;27.64;36.36;100845.19;4972016;28;20323;-72
2023/07/13 10:36:44;;;;;;;2.10;1.48;;;;;;;27.64;36.97;100839.00;4983044;28;20676;-72
2023/07/13 10:39:17;;;;;;;1.67;1.33;;;;;;;27.64;36.75;100839.00;4988364;28;20220;-72
2023/07/13 10:41:47;;;;;;;2.88;1.42;;;;;;;27.58;36.88;100846.16;4993345;28;20251;-72
2023/07/13 10:44:25;;;;;;;2.38;1.60;;;;;;;27.51;36.24;100840.97;4978957;28;20688;-72
2023/07/13 10:46:55;;;;;;;3.78;1.60;;;;;;;27.56;35.91;100841.16;4986022;28;20695;-72
2023/07/13 10:49:23;;;;;;;3.80;1.40;;;;;;;27.68;35.53;100843.13;4991539;28;20565;-72
2023/07/13 10:51:51;;;;;;;5.88;1.40;;;;;;;27.76;35.06;100840.97;4989895;28;20606;-72
2023/07/13 10:54:22;;;;;;;2.05;1.40;;;;;;;27.79;34.17;100840.88;4977429;28;20217;-72
2023/07/13 10:56:52;;;;;;;1.42;1.33;;;;;;;27.78;35.65;100838.56;4990735;28;20664;-72
2023/07/13 10:59:20;;;;;;;2.40;1.23;;;;;;;27.76;35.74;100843.69;4992885;28;20228;-72
2023/07/13 11:01:55;;;;;;;2.88;1.55;;;;;;;27.72;35.79;100843.75;4988907;28;20185;-72
2023/07/13 11:04:25;;;;;;;2.90;1.45;;;;;;;27.68;36.04;100845.06;4988805;28;20230;-72
2023/07/13 11:06:56;;;;;;;2.58;1.20;;;;;;;27.59;36.01;100842.25;4987306;28;20205;-72
2023/07/13 11:09:37;;;;;;;2.15;1.40;;;;;;;27.58;34.08;100835.31;4992564;28;20201;-72
2023/07/13 11:12:09;;;;;;;2.30;1.50;;;;;;;27.62;35.04;100838.69;4990382;28;20223;-72
2023/07/13 11:14:39;;;;;;;3.70;1.70;;;;;;;27.66;34.66;100837.38;4991344;28;20763;-73
2023/07/13 11:17:34;;;;;;;2.90;1.50;;;;;;;27.80;33.76;100830.75;4992570;28;20205;-72
2023/07/13 11:20:11;;;;;;;3.72;1.60;;;;;;;27.96;33.78;100834.13;4991688;28;20572;-72
2023/07/13 11:22:47;;;;;;;1.30;1.20;;;;;;;28.05;34.05;100834.22;4999492;28;20202;-72
2023/07/13 11:25:27;;;;;;;3.33;1.35;;;;;;;28.11;34.35;100824.31;4996211;28;20582;-72
2023/07/13 11:28:06;;;;;;;1.98;1.10;;;;;;;28.13;34.02;100816.47;4996797;28;20216;-72
2023/07/13 11:30:39;;;;;;;2.03;1.50;;;;;;;28.11;32.40;100829.75;5002153;28;20197;-72